HornbrookRWIS Atmospheric Data: 07/12/2019 Summary  Detailed Graphs  Station List

  Temperature     Wind Precipitation Visibility
Timestamp Air Wet
Bulb
Dew-
point
24-hr
Max
24-hr
Min
Relative
Humidity
Atmospheric
Pressure
Avg
Speed
Avg
Dir
Spot
Speed
Spot
Dir
Max
Speed
Max
Dir
  Rate Situation Start End 1 hr 3 hr 6 hr 12 hr 24 hr   Situation
Date Time °F °F °F °F °F % in Hg mph ° mph ° mph ° Y/N in/hr text Date Time Date Time in in in in in mi text
07/12/2019 12:13 AM 74.12 61.52 53.42 92.30 57.92 48.0 Not Reported 7.38 NW 6.49 NW 8.95 NW No 0.000 No Precipitation 05/28/2019 01:00 PM 05/28/2019 01:05 PM 0.000 0.000 0.000 0.000 0.000 Not Reported Not Reported
07/12/2019 12:27 AM 73.40 61.16 53.06 92.30 57.92 48.0 Not Reported 6.71 NW 7.61 NW 8.72 NW No 0.000 No Precipitation 05/28/2019 01:00 PM 05/28/2019 01:05 PM 0.000 0.000 0.000 0.000 0.000 Not Reported Not Reported
07/12/2019 12:43 AM 72.68 61.16 53.78 92.30 57.92 51.0 Not Reported 5.82 NW 5.59 NW 7.38 NW No 0.000 No Precipitation 05/28/2019 01:00 PM 05/28/2019 01:05 PM 0.000 0.000 0.000 0.000 0.000 Not Reported Not Reported
07/12/2019 12:59 AM 72.14 61.16 53.96 92.30 57.92 52.0 Not Reported 5.59 NW 6.26 NW 8.05 NW No 0.000 No Precipitation 05/28/2019 01:00 PM 05/28/2019 01:05 PM 0.000 0.000 0.000 0.000 0.000 Not Reported Not Reported
07/12/2019 01:12 AM 71.78 60.80 53.78 92.30 57.92 53.0 Not Reported 6.04 NW 5.59 NW 7.61 N No 0.000 No Precipitation 05/28/2019 01:00 PM 05/28/2019 01:05 PM 0.000 0.000 0.000 0.000 0.000 Not Reported Not Reported
07/12/2019 01:30 AM 70.70 60.26 53.60 92.30 57.92 54.0 Not Reported 5.59 NW 5.14 NW 6.49 NW No 0.000 No Precipitation 05/28/2019 01:00 PM 05/28/2019 01:05 PM 0.000 0.000 0.000 0.000 0.000 Not Reported Not Reported
07/12/2019 01:42 AM 69.80 60.08 53.78 92.30 57.92 56.0 Not Reported 4.25 NW 4.03 NW 5.59 NW No 0.000 No Precipitation 05/28/2019 01:00 PM 05/28/2019 01:05 PM 0.000 0.000 0.000 0.000 0.000 Not Reported Not Reported
07/12/2019 01:58 AM 69.08 59.90 53.78 92.30 57.92 58.0 Not Reported 5.14 N 5.59 N 4.47 NW No 0.000 No Precipitation 05/28/2019 01:00 PM 05/28/2019 01:05 PM 0.000 0.000 0.000 0.000 0.000 Not Reported Not Reported
07/12/2019 02:12 AM 68.90 59.72 53.60 92.30 57.92 58.0 Not Reported 5.59 NW 4.92 NW 7.61 NW No 0.000 No Precipitation 05/28/2019 01:00 PM 05/28/2019 01:05 PM 0.000 0.000 0.000 0.000 0.000 Not Reported Not Reported
07/12/2019 02:28 AM 68.54 59.72 53.78 92.30 57.92 59.0 Not Reported 5.82 NW 5.14 NW 8.72 NW No 0.000 No Precipitation 05/28/2019 01:00 PM 05/28/2019 01:05 PM 0.000 0.000 0.000 0.000 0.000 Not Reported Not Reported
07/12/2019 02:42 AM 68.00 59.36 53.96 92.30 57.92 60.0 Not Reported 6.71 NW 6.49 NW 7.38 NW No 0.000 No Precipitation 05/28/2019 01:00 PM 05/28/2019 01:05 PM 0.000 0.000 0.000 0.000 0.000 Not Reported Not Reported
07/12/2019 02:58 AM 68.00 59.54 53.78 92.30 57.92 60.0 Not Reported 7.16 NW 6.26 NW 8.50 NW No 0.000 No Precipitation 05/28/2019 01:00 PM 05/28/2019 01:05 PM 0.000 0.000 0.000 0.000 0.000 Not Reported Not Reported
07/12/2019 03:12 AM 66.56 58.82 53.42 92.30 57.92 62.0 Not Reported 5.14 NW 5.82 W 7.61 NW No 0.000 No Precipitation 05/28/2019 01:00 PM 05/28/2019 01:05 PM 0.000 0.000 0.000 0.000 0.000 Not Reported Not Reported
07/12/2019 03:27 AM 66.74 58.82 53.60 92.30 57.92 62.0 Not Reported 6.04 NW 5.59 W 6.04 NW No 0.000 No Precipitation 05/28/2019 01:00 PM 05/28/2019 01:05 PM 0.000 0.000 0.000 0.000 0.000 Not Reported Not Reported
07/12/2019 03:42 AM 66.38 58.10 53.06 92.30 57.92 61.0 Not Reported 5.59 W 4.92 W 7.16 NW No 0.000 No Precipitation 05/28/2019 01:00 PM 05/28/2019 01:05 PM 0.000 0.000 0.000 0.000 0.000 Not Reported Not Reported
07/12/2019 03:57 AM 65.84 58.10 52.70 92.30 57.92 62.0 Not Reported 6.26 W 6.49 W 6.49 W No 0.000 No Precipitation 05/28/2019 01:00 PM 05/28/2019 01:05 PM 0.000 0.000 0.000 0.000 0.000 Not Reported Not Reported
07/12/2019 04:12 AM 64.22 57.02 51.98 92.30 57.92 64.0 Not Reported 5.37 W 5.59 NW 7.16 NW No 0.000 No Precipitation 05/28/2019 01:00 PM 05/28/2019 01:05 PM 0.000 0.000 0.000 0.000 0.000 Not Reported Not Reported
07/12/2019 04:27 AM 63.86 56.84 51.80 92.30 57.92 64.0 Not Reported 5.37 W 5.82 W 6.26 NW No 0.000 No Precipitation 05/28/2019 01:00 PM 05/28/2019 01:05 PM 0.000 0.000 0.000 0.000 0.000 Not Reported Not Reported
07/12/2019 04:42 AM 63.86 57.02 51.98 92.30 57.92 65.0 Not Reported 3.58 W 3.58 W 4.92 W No 0.000 No Precipitation 05/28/2019 01:00 PM 05/28/2019 01:05 PM 0.000 0.000 0.000 0.000 0.000 Not Reported Not Reported
07/12/2019 04:57 AM 63.32 56.12 51.08 92.30 57.92 64.0 Not Reported 3.13 W 3.13 W 4.70 W No 0.000 No Precipitation 05/28/2019 01:00 PM 05/28/2019 01:05 PM 0.000 0.000 0.000 0.000 0.000 Not Reported Not Reported
07/12/2019 05:12 AM 63.32 56.48 51.62 92.30 57.92 65.0 Not Reported 0.89 NW 1.12 NW 2.68 W No 0.000 No Precipitation 05/28/2019 01:00 PM 05/28/2019 01:05 PM 0.000 0.000 0.000 0.000 0.000 Not Reported Not Reported
07/12/2019 05:27 AM 62.42 56.12 51.62 92.30 57.92 67.0 Not Reported 0.00 S 1.12 W 1.57 NW No 0.000 No Precipitation 05/28/2019 01:00 PM 05/28/2019 01:05 PM 0.000 0.000 0.000 0.000 0.000 Not Reported Not Reported
07/12/2019 05:42 AM 61.88 55.94 51.62 92.30 57.92 68.0 Not Reported 0.00 N 0.45 SE 1.12 SW No 0.000 No Precipitation 05/28/2019 01:00 PM 05/28/2019 01:05 PM 0.000 0.000 0.000 0.000 0.000 Not Reported Not Reported
07/12/2019 05:57 AM 62.24 56.12 51.80 92.30 57.92 68.0 Not Reported 0.00 NW 0.89 NW 0.89 SE No 0.000 No Precipitation 05/28/2019 01:00 PM 05/28/2019 01:05 PM 0.000 0.000 0.000 0.000 0.000 Not Reported Not Reported
07/12/2019 06:12 AM 61.70 55.94 51.98 92.30 57.92 70.0 Not Reported 0.00 N 0.00 W 0.45 NE No 0.000 No Precipitation 05/28/2019 01:00 PM 05/28/2019 01:05 PM 0.000 0.000 0.000 0.000 0.000 Not Reported Not Reported
07/12/2019 06:27 AM 60.80 55.40 51.44 92.30 57.92 71.0 Not Reported 0.00 W 0.45 S 0.00 W No 0.000 No Precipitation 05/28/2019 01:00 PM 05/28/2019 01:05 PM 0.000 0.000 0.000 0.000 0.000 Not Reported Not Reported
07/12/2019 06:42 AM 60.98 55.76 51.98 92.30 57.92 72.0 Not Reported 0.00 W 0.00 W 1.12 W No 0.000 No Precipitation 05/28/2019 01:00 PM 05/28/2019 01:05 PM 0.000 0.000 0.000 0.000 0.000 Not Reported Not Reported
07/12/2019 06:57 AM 60.80 55.40 51.44 92.30 57.92 71.0 Not Reported 0.45 S 0.00 N 1.12 N No 0.000 No Precipitation 05/28/2019 01:00 PM 05/28/2019 01:05 PM 0.000 0.000 0.000 0.000 0.000 Not Reported Not Reported
07/12/2019 07:12 AM 60.08 55.22 51.62 92.30 57.92 73.0 Not Reported 0.22 SW 0.45 SW 1.57 S No 0.000 No Precipitation 05/28/2019 01:00 PM 05/28/2019 01:05 PM 0.000 0.000 0.000 0.000 0.000 Not Reported Not Reported
07/12/2019 07:27 AM 61.34 55.94 52.16 92.30 59.18 71.0 Not Reported 0.00 N 0.00 S 1.12 S No 0.000 No Precipitation 05/28/2019 01:00 PM 05/28/2019 01:05 PM 0.000 0.000 0.000 0.000 0.000 Not Reported Not Reported
07/12/2019 07:42 AM 62.42 56.84 52.70 92.30 59.36 70.0 Not Reported 0.00 E 0.67 E 0.00 S No 0.000 No Precipitation 05/28/2019 01:00 PM 05/28/2019 01:05 PM 0.000 0.000 0.000 0.000 0.000 Not Reported Not Reported
07/12/2019 07:58 AM 63.86 57.38 52.88 92.30 59.72 67.0 Not Reported 0.00 N 0.00 N 1.57 E No 0.000 No Precipitation 05/28/2019 01:00 PM 05/28/2019 01:05 PM 0.000 0.000 0.000 0.000 0.000 Not Reported Not Reported
07/12/2019 08:12 AM 64.76 57.56 52.70 92.30 59.72 65.0 Not Reported 0.67 E 0.22 E 1.57 E No 0.000 No Precipitation 05/28/2019 01:00 PM 05/28/2019 01:05 PM 0.000 0.000 0.000 0.000 0.000 Not Reported Not Reported
07/12/2019 08:27 AM 65.48 58.10 53.06 92.30 59.72 64.0 Not Reported 0.67 E 0.00 E 1.34 E No 0.000 No Precipitation 05/28/2019 01:00 PM 05/28/2019 01:05 PM 0.000 0.000 0.000 0.000 0.000 Not Reported Not Reported
07/12/2019 08:42 AM 66.74 58.64 53.06 92.30 59.72 61.0 Not Reported 0.00 N 0.00 E 1.34 E No 0.000 No Precipitation 05/28/2019 01:00 PM 05/28/2019 01:05 PM 0.000 0.000 0.000 0.000 0.000 Not Reported Not Reported
07/12/2019 08:58 AM 68.00 59.00 53.06 92.30 59.72 58.0 Not Reported 1.57 SE 1.34 E 1.34 NE No 0.000 No Precipitation 05/28/2019 01:00 PM 05/28/2019 01:05 PM 0.000 0.000 0.000 0.000 0.000 Not Reported Not Reported
07/12/2019 09:12 AM 68.00 59.36 53.42 92.30 59.72 59.0 Not Reported 2.68 E 2.01 E 2.46 E No 0.000 No Precipitation 05/28/2019 01:00 PM 05/28/2019 01:05 PM 0.000 0.000 0.000 0.000 0.000 Not Reported Not Reported
07/12/2019 09:27 AM 69.80 60.26 53.42 92.30 59.72 56.0 Not Reported 1.34 NE 0.89 NE 3.13 E No 0.000 No Precipitation 05/28/2019 01:00 PM 05/28/2019 01:05 PM 0.000 0.000 0.000 0.000 0.000 Not Reported Not Reported
07/12/2019 09:42 AM 71.06 60.26 53.24 92.30 59.72 53.0 Not Reported 2.91 SE 1.34 SE 2.68 SE No 0.000 No Precipitation 05/28/2019 01:00 PM 05/28/2019 01:05 PM 0.000 0.000 0.000 0.000 0.000 Not Reported Not Reported
07/12/2019 09:58 AM 71.24 60.80 53.96 92.30 59.72 54.0 Not Reported 2.68 E 2.01 NE 3.13 SE No 0.000 No Precipitation 05/28/2019 01:00 PM 05/28/2019 01:05 PM 0.000 0.000 0.000 0.000 0.000 Not Reported Not Reported
07/12/2019 10:12 AM 73.76 61.70 53.78 92.30 59.72 49.0 Not Reported 2.46 E 3.36 SE 3.80 SE No 0.000 No Precipitation 05/28/2019 01:00 PM 05/28/2019 01:05 PM 0.000 0.000 0.000 0.000 0.000 Not Reported Not Reported
07/12/2019 10:27 AM 74.66 62.24 54.14 92.30 59.72 48.0 Not Reported 2.91 SE 2.68 SE 4.25 SE No 0.000 No Precipitation 05/28/2019 01:00 PM 05/28/2019 01:05 PM 0.000 0.000 0.000 0.000 0.000 Not Reported Not Reported
07/12/2019 10:42 AM 76.28 62.96 54.86 92.30 59.72 47.0 Not Reported 1.12 NE 0.22 SE 3.58 E No 0.000 No Precipitation 05/28/2019 01:00 PM 05/28/2019 01:05 PM 0.000 0.000 0.000 0.000 0.000 Not Reported Not Reported
07/12/2019 10:57 AM 77.18 62.96 54.14 92.30 59.72 44.0 Not Reported 2.24 E 2.68 SE 5.37 E No 0.000 No Precipitation 05/28/2019 01:00 PM 05/28/2019 01:05 PM 0.000 0.000 0.000 0.000 0.000 Not Reported Not Reported
07/12/2019 11:13 AM 77.72 62.96 53.78 92.30 59.72 43.0 Not Reported 0.67 SE 5.14 E 4.92 E No 0.000 No Precipitation 05/28/2019 01:00 PM 05/28/2019 01:05 PM 0.000 0.000 0.000 0.000 0.000 Not Reported Not Reported
07/12/2019 11:27 AM 79.52 62.96 52.52 92.30 59.72 39.0 Not Reported 0.45 SE 0.45 W 5.14 E No 0.000 No Precipitation 05/28/2019 01:00 PM 05/28/2019 01:05 PM 0.000 0.000 0.000 0.000 0.000 Not Reported Not Reported
07/12/2019 11:42 AM 81.14 64.04 53.60 92.30 59.72 38.0 Not Reported 3.58 NE 3.58 NE 3.36 SW No 0.000 No Precipitation 05/28/2019 01:00 PM 05/28/2019 01:05 PM 0.000 0.000 0.000 0.000 0.000 Not Reported Not Reported
07/12/2019 11:57 AM 80.96 63.50 52.70 92.30 59.72 38.0 Not Reported 3.36 E 1.79 SE 5.82 NE No 0.000 No Precipitation 05/28/2019 01:00 PM 05/28/2019 01:05 PM 0.000 0.000 0.000 0.000 0.000 Not Reported Not Reported
07/12/2019 12:12 PM 82.22 64.04 52.52 92.30 59.72 35.0 Not Reported 2.01 SE 2.01 SE 5.59 SE No 0.000 No Precipitation 05/28/2019 01:00 PM 05/28/2019 01:05 PM 0.000 0.000 0.000 0.000 0.000 Not Reported Not Reported
07/12/2019 12:27 PM 83.30 64.58 52.88 92.30 59.72 35.0 Not Reported 4.92 SE 2.91 SE 2.91 S No 0.000 No Precipitation 05/28/2019 01:00 PM 05/28/2019 01:05 PM 0.000 0.000 0.000 0.000 0.000 Not Reported Not Reported
07/12/2019 12:42 PM 85.28 65.66 53.78 92.30 59.72 34.0 Not Reported 2.46 SE 2.91 E 4.70 NW No 0.000 No Precipitation 05/28/2019 01:00 PM 05/28/2019 01:05 PM 0.000 0.000 0.000 0.000 0.000 Not Reported Not Reported
07/12/2019 12:57 PM 86.00 64.94 51.80 92.30 59.72 30.0 Not Reported 5.37 SE 4.92 SE 4.92 E No 0.000 No Precipitation 05/28/2019 01:00 PM 05/28/2019 01:05 PM 0.000 0.000 0.000 0.000 0.000 Not Reported Not Reported
07/12/2019 01:12 PM 86.72 65.12 51.44 92.30 59.72 29.0 Not Reported 5.37 SE 7.61 E 8.72 E No 0.000 No Precipitation 05/28/2019 01:00 PM 05/28/2019 01:05 PM 0.000 0.000 0.000 0.000 0.000 Not Reported Not Reported
07/12/2019 01:28 PM 87.26 65.12 51.08 92.30 59.72 28.0 Not Reported 8.72 NE 9.17 E 9.40 SE No 0.000 No Precipitation 05/28/2019 01:00 PM 05/28/2019 01:05 PM 0.000 0.000 0.000 0.000 0.000 Not Reported Not Reported
07/12/2019 01:42 PM 86.72 65.30 51.98 92.30 59.72 30.0 Not Reported 6.49 E 4.25 NE 8.50 E No 0.000 No Precipitation 05/28/2019 01:00 PM 05/28/2019 01:05 PM 0.000 0.000 0.000 0.000 0.000 Not Reported Not Reported
07/12/2019 01:57 PM 87.62 65.66 52.34 92.30 59.72 29.0 Not Reported 5.37 E 4.47 E 9.84 NE No 0.000 No Precipitation 05/28/2019 01:00 PM 05/28/2019 01:05 PM 0.000 0.000 0.000 0.000 0.000 Not Reported Not Reported
07/12/2019 02:12 PM 88.70 66.02 52.34 92.30 59.72 28.0 Not Reported 3.80 NE 2.46 N 10.07 E No 0.000 No Precipitation 05/28/2019 01:00 PM 05/28/2019 01:05 PM 0.000 0.000 0.000 0.000 0.000 Not Reported Not Reported
07/12/2019 02:28 PM 89.78 65.84 50.72 92.30 59.72 26.0 Not Reported 5.37 NE 2.46 N 7.83 N No 0.000 No Precipitation 05/28/2019 01:00 PM 05/28/2019 01:05 PM 0.000 0.000 0.000 0.000 0.000 Not Reported Not Reported
07/12/2019 02:43 PM 88.88 65.48 50.54 92.30 59.72 26.0 Not Reported 3.58 SE 4.92 NE 8.72 N No 0.000 No Precipitation 05/28/2019 01:00 PM 05/28/2019 01:05 PM 0.000 0.000 0.000 0.000 0.000 Not Reported Not Reported
07/12/2019 02:57 PM 91.04 66.20 50.54 92.30 59.72 25.0 Not Reported 3.58 SW 4.92 W 7.83 E No 0.000 No Precipitation 05/28/2019 01:00 PM 05/28/2019 01:05 PM 0.000 0.000 0.000 0.000 0.000 Not Reported Not Reported
07/12/2019 03:13 PM 90.14 66.02 51.08 92.30 59.72 26.0 Not Reported 4.47 NE 0.00 N 9.62 E No 0.000 No Precipitation 05/28/2019 01:00 PM 05/28/2019 01:05 PM 0.000 0.000 0.000 0.000 0.000 Not Reported Not Reported
07/12/2019 03:27 PM 91.58 66.74 51.62 92.30 59.72 26.0 Not Reported 3.58 NE 5.82 NE 5.82 NE No 0.000 No Precipitation 05/28/2019 01:00 PM 05/28/2019 01:05 PM 0.000 0.000 0.000 0.000 0.000 Not Reported Not Reported
07/12/2019 03:43 PM 90.50 65.66 50.00 92.30 59.72 25.0 Not Reported 5.14 NE 3.36 W 7.61 N No 0.000 No Precipitation 05/28/2019 01:00 PM 05/28/2019 01:05 PM 0.000 0.000 0.000 0.000 0.000 Not Reported Not Reported
07/12/2019 03:57 PM 91.04 66.38 51.26 92.30 59.72 25.0 Not Reported 8.28 E 4.03 E 8.50 E No 0.000 No Precipitation 05/28/2019 01:00 PM 05/28/2019 01:05 PM 0.000 0.000 0.000 0.000 0.000 Not Reported Not Reported
07/12/2019 04:12 PM 90.68 66.02 50.72 92.48 59.72 25.0 Not Reported 4.70 NE 2.68 NE 8.28 E No 0.000 No Precipitation 05/28/2019 01:00 PM 05/28/2019 01:05 PM 0.000 0.000 0.000 0.000 0.000 Not Reported Not Reported
07/12/2019 04:27 PM 92.84 66.92 50.90 92.84 59.72 24.0 Not Reported 6.71 NW 4.25 W 12.75 N No 0.000 No Precipitation 05/28/2019 01:00 PM 05/28/2019 01:05 PM 0.000 0.000 0.000 0.000 0.000 Not Reported Not Reported
07/12/2019 04:42 PM 91.94 67.10 52.34 94.28 59.72 26.0 Not Reported 9.40 NW 9.84 N 13.65 NW No 0.000 No Precipitation 05/28/2019 01:00 PM 05/28/2019 01:05 PM 0.000 0.000 0.000 0.000 0.000 Not Reported Not Reported
07/12/2019 04:57 PM 91.22 66.20 51.62 94.28 59.72 25.0 Not Reported 7.16 N 8.72 N 14.99 N No 0.000 No Precipitation 05/28/2019 01:00 PM 05/28/2019 01:05 PM 0.000 0.000 0.000 0.000 0.000 Not Reported Not Reported
07/12/2019 05:12 PM 92.12 67.28 52.34 94.28 59.72 26.0 Not Reported 7.61 NW 4.92 N 13.20 N No 0.000 No Precipitation 05/28/2019 01:00 PM 05/28/2019 01:05 PM 0.000 0.000 0.000 0.000 0.000 Not Reported Not Reported
07/12/2019 05:27 PM 91.04 66.92 52.34 94.28 59.72 26.0 Not Reported 9.40 NW 8.28 N 11.63 NW No 0.000 No Precipitation 05/28/2019 01:00 PM 05/28/2019 01:05 PM 0.000 0.000 0.000 0.000 0.000 Not Reported Not Reported
07/12/2019 05:42 PM 92.12 67.28 52.34 94.28 59.72 26.0 Not Reported 13.20 NW 11.18 NW 15.21 NW No 0.000 No Precipitation 05/28/2019 01:00 PM 05/28/2019 01:05 PM 0.000 0.000 0.000 0.000 0.000 Not Reported Not Reported
07/12/2019 05:57 PM 90.86 66.92 52.52 94.28 59.72 27.0 Not Reported 10.51 NW 8.05 NW 14.09 NW No 0.000 No Precipitation 05/28/2019 01:00 PM 05/28/2019 01:05 PM 0.000 0.000 0.000 0.000 0.000 Not Reported Not Reported
07/12/2019 06:12 PM 89.96 66.92 53.42 94.28 59.72 28.0 Not Reported 14.09 N 13.87 N 16.78 NW No 0.000 No Precipitation 05/28/2019 01:00 PM 05/28/2019 01:05 PM 0.000 0.000 0.000 0.000 0.000 Not Reported Not Reported
07/12/2019 06:27 PM 89.06 66.38 52.88 94.28 59.72 29.0 Not Reported 12.75 NW 10.96 NW 16.33 NW No 0.000 No Precipitation 05/28/2019 01:00 PM 05/28/2019 01:05 PM 0.000 0.000 0.000 0.000 0.000 Not Reported Not Reported
07/12/2019 06:42 PM 90.14 67.10 53.60 94.28 59.72 29.0 Not Reported 12.97 NW 14.54 N 14.32 NW No 0.000 No Precipitation 05/28/2019 01:00 PM 05/28/2019 01:05 PM 0.000 0.000 0.000 0.000 0.000 Not Reported Not Reported
07/12/2019 06:57 PM 89.42 66.92 53.78 94.28 59.72 29.0 Not Reported 12.30 NW 11.41 NW 15.88 N No 0.000 No Precipitation 05/28/2019 01:00 PM 05/28/2019 01:05 PM 0.000 0.000 0.000 0.000 0.000 Not Reported Not Reported
07/12/2019 07:12 PM 88.70 66.56 53.06 94.28 59.72 29.0 Not Reported 13.42 NW 12.53 NW 16.55 NW No 0.000 No Precipitation 05/28/2019 01:00 PM 05/28/2019 01:05 PM 0.000 0.000 0.000 0.000 0.000 Not Reported Not Reported
07/12/2019 07:28 PM 88.70 66.38 52.70 94.28 59.72 29.0 Not Reported 11.41 NW 9.84 NW 15.88 N No 0.000 No Precipitation 05/28/2019 01:00 PM 05/28/2019 01:05 PM 0.000 0.000 0.000 0.000 0.000 Not Reported Not Reported
07/12/2019 07:42 PM 87.80 65.84 52.34 94.28 59.72 29.0 Not Reported 12.30 NW 8.72 NW 14.76 NW No 0.000 No Precipitation 05/28/2019 01:00 PM 05/28/2019 01:05 PM 0.000 0.000 0.000 0.000 0.000 Not Reported Not Reported
07/12/2019 07:57 PM 87.08 65.30 51.80 94.28 59.72 29.0 Not Reported 11.86 NW 11.41 NW 14.99 NW No 0.000 No Precipitation 05/28/2019 01:00 PM 05/28/2019 01:05 PM 0.000 0.000 0.000 0.000 0.000 Not Reported Not Reported
07/12/2019 08:12 PM 86.54 65.12 51.62 94.28 59.72 30.0 Not Reported 9.84 NW 7.83 NW 14.99 NW No 0.000 No Precipitation 05/28/2019 01:00 PM 05/28/2019 01:05 PM 0.000 0.000 0.000 0.000 0.000 Not Reported Not Reported
07/12/2019 08:27 PM 85.46 64.58 51.26 94.28 59.72 30.0 Not Reported 8.50 NW 10.29 NW 12.97 NW No 0.000 No Precipitation 05/28/2019 01:00 PM 05/28/2019 01:05 PM 0.000 0.000 0.000 0.000 0.000 Not Reported Not Reported
07/12/2019 08:42 PM 84.20 64.22 51.44 94.28 59.72 32.0 Not Reported 11.18 NW 9.62 NW 14.76 NW No 0.000 No Precipitation 05/28/2019 01:00 PM 05/28/2019 01:05 PM 0.000 0.000 0.000 0.000 0.000 Not Reported Not Reported
07/12/2019 08:57 PM 82.22 63.86 52.34 94.28 59.72 35.0 Not Reported 11.86 NW 10.51 NW 14.76 N No 0.000 No Precipitation 05/28/2019 01:00 PM 05/28/2019 01:05 PM 0.000 0.000 0.000 0.000 0.000 Not Reported Not Reported
07/12/2019 09:12 PM 81.14 63.68 52.52 94.28 59.72 36.0 Not Reported 11.18 NW 11.63 NW 15.43 NW No 0.000 No Precipitation 05/28/2019 01:00 PM 05/28/2019 01:05 PM 0.000 0.000 0.000 0.000 0.000 Not Reported Not Reported
07/12/2019 09:27 PM 80.42 63.32 52.52 94.28 59.72 37.0 Not Reported 12.30 NW 10.74 NW 17.45 NW No 0.000 No Precipitation 05/28/2019 01:00 PM 05/28/2019 01:05 PM 0.000 0.000 0.000 0.000 0.000 Not Reported Not Reported
07/12/2019 09:42 PM 79.88 63.32 52.70 94.28 59.72 38.0 Not Reported 8.28 NW 9.84 NW 16.33 NW No 0.000 No Precipitation 05/28/2019 01:00 PM 05/28/2019 01:05 PM 0.000 0.000 0.000 0.000 0.000 Not Reported Not Reported
07/12/2019 09:58 PM 78.98 62.96 52.70 94.28 59.72 40.0 Not Reported 11.63 NW 8.95 NW 13.42 NW No 0.000 No Precipitation 05/28/2019 01:00 PM 05/28/2019 01:05 PM 0.000 0.000 0.000 0.000 0.000 Not Reported Not Reported
07/12/2019 10:12 PM 78.26 62.78 52.70 94.28 59.72 41.0 Not Reported 12.53 NW 12.30 NW 13.20 NW No 0.000 No Precipitation 05/28/2019 01:00 PM 05/28/2019 01:05 PM 0.000 0.000 0.000 0.000 0.000 Not Reported Not Reported
07/12/2019 10:27 PM 77.54 62.42 52.88 94.28 59.72 42.0 Not Reported 10.51 NW 9.84 NW 14.99 NW No 0.000 No Precipitation 05/28/2019 01:00 PM 05/28/2019 01:05 PM 0.000 0.000 0.000 0.000 0.000 Not Reported Not Reported
07/12/2019 10:42 PM 77.00 62.42 52.88 94.28 59.72 43.0 Not Reported 9.40 NW 9.62 NW 14.32 NW No 0.000 No Precipitation 05/28/2019 01:00 PM 05/28/2019 01:05 PM 0.000 0.000 0.000 0.000 0.000 Not Reported Not Reported
07/12/2019 10:57 PM 76.46 62.24 53.06 94.28 59.72 44.0 Not Reported 9.62 NW 8.50 W 14.76 NW No 0.000 No Precipitation 05/28/2019 01:00 PM 05/28/2019 01:05 PM 0.000 0.000 0.000 0.000 0.000 Not Reported Not Reported
07/12/2019 11:13 PM 75.92 62.06 53.06 94.28 59.72 44.0 Not Reported 10.51 NW 12.30 NW 13.20 NW No 0.000 No Precipitation 05/28/2019 01:00 PM 05/28/2019 01:05 PM 0.000 0.000 0.000 0.000 0.000 Not Reported Not Reported
07/12/2019 11:27 PM 75.56 62.06 53.24 94.28 59.72 45.0 Not Reported 10.29 NW 9.40 NW 16.55 NW No 0.000 No Precipitation 05/28/2019 01:00 PM 05/28/2019 01:05 PM 0.000 0.000 0.000 0.000 0.000 Not Reported Not Reported
07/12/2019 11:42 PM 75.38 61.88 53.42 94.28 59.72 46.0 Not Reported 9.84 NW 8.50 NW 16.33 NW No 0.000 No Precipitation 05/28/2019 01:00 PM 05/28/2019 01:05 PM 0.000 0.000 0.000 0.000 0.000 Not Reported Not Reported
07/12/2019 11:57 PM 74.84 61.70 53.42 94.28 59.72 47.0 Not Reported 11.63 NW 9.84 NW 14.76 NW No 0.000 No Precipitation 05/28/2019 01:00 PM 05/28/2019 01:05 PM 0.000 0.000 0.000 0.000 0.000 Not Reported Not Reported